createdAt,value
2018-05-09T00:01:35.531Z,97187.38
2018-05-09T00:04:03.118Z,97191.75
2018-05-09T00:06:30.754Z,97191.64
2018-05-09T00:08:58.375Z,97190.85
2018-05-09T00:11:25.963Z,97190.85
2018-05-09T00:13:53.591Z,97192.94
2018-05-09T00:16:21.189Z,97192.19
2018-05-09T00:18:48.774Z,97189.28
2018-05-09T00:21:16.413Z,97190.25
2018-05-09T00:23:43.998Z,97182.25
2018-05-09T00:26:11.609Z,97181.98
2018-05-09T00:28:39.242Z,97181.39
2018-05-09T00:31:06.835Z,97184.33
2018-05-09T00:33:34.427Z,97182.00
2018-05-09T00:36:02.059Z,97183.84
2018-05-09T00:38:29.654Z,97182.27
2018-05-09T00:40:57.251Z,97173.37
2018-05-09T00:43:24.890Z,97170.38
2018-05-09T00:45:52.486Z,97176.25
2018-05-09T00:48:20.073Z,97169.27
2018-05-09T00:50:47.699Z,97170.11
2018-05-09T00:53:15.289Z,97174.95
2018-05-09T00:55:42.886Z,97169.68
2018-05-09T00:58:10.517Z,97169.98
2018-05-09T01:00:38.110Z,97178.97
2018-05-09T01:03:05.716Z,97178.30
2018-05-09T01:05:33.384Z,97181.92
2018-05-09T01:08:00.979Z,97177.05
2018-05-09T01:10:28.567Z,97173.97
2018-05-09T01:12:56.208Z,97172.42
2018-05-09T01:15:23.799Z,97168.82
2018-05-09T01:17:51.379Z,97167.94
2018-05-09T01:20:19.012Z,97161.30
2018-05-09T01:22:46.618Z,97161.39
2018-05-09T01:25:14.202Z,97163.16
2018-05-09T01:27:42.082Z,97154.20
2018-05-09T01:30:09.670Z,97150.66
2018-05-09T01:32:37.266Z,97157.48
2018-05-09T01:35:04.892Z,97157.17
2018-05-09T01:37:32.486Z,97145.63
2018-05-09T01:40:00.108Z,97151.44
2018-05-09T01:42:27.714Z,97147.65
2018-05-09T01:44:55.325Z,97158.12
2018-05-09T01:47:22.916Z,97150.13
2018-05-09T01:49:50.549Z,97153.12
2018-05-09T01:52:18.139Z,97150.00
2018-05-09T01:54:45.736Z,97156.02
2018-05-09T01:57:13.366Z,97154.98
2018-05-09T01:59:40.959Z,97153.73
2018-05-09T02:02:08.551Z,97158.48
2018-05-09T02:04:36.179Z,97157.73
2018-05-09T02:07:03.770Z,97156.24
2018-05-09T02:09:31.361Z,97146.86
2018-05-09T02:11:59.007Z,97144.90
2018-05-09T02:14:26.623Z,97139.92
2018-05-09T02:16:54.215Z,97144.19
2018-05-09T02:19:21.838Z,97141.47
2018-05-09T02:21:49.443Z,97138.31
2018-05-09T02:24:17.031Z,97140.17
2018-05-09T02:26:44.656Z,97142.42
2018-05-09T02:29:12.274Z,97135.19
2018-05-09T02:31:39.871Z,97137.14
2018-05-09T02:34:07.515Z,97142.11
2018-05-09T02:36:35.111Z,97132.98
2018-05-09T02:39:02.709Z,97138.78
2018-05-09T02:41:30.336Z,97131.86
2018-05-09T02:43:57.931Z,97131.14
2018-05-09T02:46:25.521Z,97124.70
2018-05-09T02:48:53.139Z,97117.91
2018-05-09T02:51:20.728Z,97111.06
2018-05-09T02:53:48.327Z,97118.62
2018-05-09T02:56:15.959Z,97111.33
2018-05-09T02:58:43.549Z,97107.59
2018-05-09T03:01:11.144Z,97107.01
2018-05-09T03:03:38.770Z,97104.32
2018-05-09T03:06:06.371Z,97108.53
2018-05-09T03:08:33.959Z,97109.31
2018-05-09T03:11:01.580Z,97109.65
2018-05-09T03:13:29.180Z,97107.20
2018-05-09T03:15:56.773Z,97107.20
2018-05-09T03:18:24.418Z,97105.81
2018-05-09T03:20:52.011Z,97109.80
2018-05-09T03:23:19.617Z,97107.96
2018-05-09T03:25:47.251Z,97106.91
2018-05-09T03:28:14.851Z,97106.51
2018-05-09T03:30:42.461Z,97110.52
2018-05-09T03:33:10.088Z,97110.47
2018-05-09T03:35:37.703Z,97104.55
2018-05-09T03:38:05.288Z,97105.42
2018-05-09T03:40:33.178Z,97103.98
2018-05-09T03:43:00.841Z,97107.27
2018-05-09T03:45:28.442Z,97105.63
2018-05-09T03:47:56.063Z,97102.55
2018-05-09T03:50:23.665Z,97103.69
2018-05-09T03:52:51.258Z,97095.77
2018-05-09T03:55:18.875Z,97099.20
2018-05-09T03:57:46.470Z,97097.05
2018-05-09T04:00:14.073Z,97096.27
2018-05-09T04:02:53.511Z,97099.06
2018-05-09T04:05:32.963Z,97095.92
2018-05-09T04:08:14.089Z,97099.08
2018-05-09T04:10:41.679Z,97099.52
2018-05-09T04:13:09.320Z,97100.02
2018-05-09T04:15:36.927Z,97100.80
2018-05-09T04:18:04.591Z,97098.16
2018-05-09T04:20:32.183Z,97104.57
2018-05-09T04:22:59.819Z,97106.33
2018-05-09T04:25:27.421Z,97100.52
2018-05-09T04:27:55.042Z,97100.13
2018-05-09T04:30:22.670Z,97105.11
2018-05-09T04:32:50.267Z,97106.55
2018-05-09T04:35:17.863Z,97104.72
2018-05-09T04:37:45.478Z,97097.95
2018-05-09T04:40:13.065Z,97102.21
2018-05-09T04:42:40.662Z,97105.14
2018-05-09T04:45:08.298Z,97103.06
2018-05-09T04:47:35.897Z,97100.44
2018-05-09T04:50:03.489Z,97100.63
2018-05-09T04:52:31.132Z,97098.48
2018-05-09T04:54:58.763Z,97100.94
2018-05-09T04:57:26.354Z,97092.78
2018-05-09T04:59:53.987Z,97099.66
2018-05-09T05:02:21.575Z,97108.02
2018-05-09T05:04:49.190Z,97091.55
2018-05-09T05:07:16.836Z,97096.40
2018-05-09T05:09:44.444Z,97105.84
2018-05-09T05:12:12.246Z,97097.20
2018-05-09T05:14:40.198Z,97099.05
2018-05-09T05:17:07.802Z,97101.28
2018-05-09T05:19:35.414Z,97102.35
2018-05-09T05:22:03.046Z,97102.97
2018-05-09T05:24:30.663Z,97096.86
2018-05-09T05:26:58.281Z,97105.20
2018-05-09T05:29:25.940Z,97108.86
2018-05-09T05:31:53.530Z,97113.80
2018-05-09T05:34:21.124Z,97111.59
2018-05-09T05:36:48.762Z,97112.59
2018-05-09T05:39:16.429Z,97111.53
2018-05-09T05:41:44.030Z,97108.45
2018-05-09T05:44:11.647Z,97115.67
2018-05-09T05:46:39.240Z,97115.38
2018-05-09T05:49:06.836Z,97110.50
2018-05-09T05:51:34.482Z,97120.42
2018-05-09T05:54:02.096Z,97126.68
2018-05-09T05:56:29.756Z,97117.87
2018-05-09T05:58:57.387Z,97120.17
2018-05-09T06:01:25.074Z,97126.45
2018-05-09T06:03:52.668Z,97127.50
2018-05-09T06:06:20.357Z,97132.48
2018-05-09T06:08:47.925Z,97136.31
2018-05-09T06:11:15.521Z,97136.11
2018-05-09T06:13:43.172Z,97139.68
2018-05-09T06:16:10.777Z,97135.86
2018-05-09T06:18:38.405Z,97139.55
2018-05-09T06:21:06.030Z,97142.59
2018-05-09T06:23:33.631Z,97145.90
2018-05-09T06:26:01.220Z,97144.31
2018-05-09T06:28:28.846Z,97138.25
2018-05-09T06:30:56.502Z,97142.09
2018-05-09T06:33:24.076Z,97133.45
2018-05-09T06:35:51.723Z,97127.92
2018-05-09T06:38:19.333Z,97133.84
2018-05-09T06:40:46.930Z,97125.66
2018-05-09T06:43:14.565Z,97128.66
2018-05-09T06:45:42.198Z,97127.28
2018-05-09T06:48:09.803Z,97130.28
2018-05-09T06:50:38.439Z,97133.66
2018-05-09T06:53:06.029Z,97138.19
2018-05-09T06:55:33.638Z,97135.66
2018-05-09T06:58:01.931Z,97139.28
2018-05-09T07:00:29.526Z,97141.28
2018-05-09T07:02:57.411Z,97140.88
2018-05-09T07:05:25.029Z,97142.91
2018-05-09T07:07:52.682Z,97141.65
2018-05-09T07:10:20.283Z,97136.03
2018-05-09T07:12:47.905Z,97142.56
2018-05-09T07:15:15.543Z,97141.65
2018-05-09T07:17:43.138Z,97143.55
2018-05-09T07:20:10.774Z,97140.12
2018-05-09T07:22:38.354Z,97137.53
2018-05-09T07:25:05.968Z,97143.89
2018-05-09T07:27:33.940Z,97142.69
2018-05-09T07:30:01.534Z,97146.81
2018-05-09T07:32:29.125Z,97146.31
2018-05-09T07:34:56.738Z,97140.73
2018-05-09T07:37:24.326Z,97140.42
2018-05-09T07:39:51.916Z,97142.80
2018-05-09T07:42:19.546Z,97140.08
2018-05-09T07:44:47.145Z,97147.05
2018-05-09T07:47:14.731Z,97144.78
2018-05-09T07:49:42.495Z,97147.45
2018-05-09T07:52:10.082Z,97139.30
2018-05-09T07:54:37.679Z,97140.69
2018-05-09T07:57:05.531Z,97136.44
2018-05-09T07:59:33.127Z,97141.64
2018-05-09T08:02:00.754Z,97137.14
2018-05-09T08:04:28.395Z,97135.02
2018-05-09T08:06:55.986Z,97138.05
2018-05-09T08:09:23.578Z,97141.53
2018-05-09T08:11:51.197Z,97140.26
2018-05-09T08:14:19.092Z,97138.25
2018-05-09T08:16:46.690Z,97140.06
2018-05-09T08:19:16.047Z,97149.84
2018-05-09T08:21:43.732Z,97148.81
2018-05-09T08:24:11.323Z,97143.06
2018-05-09T08:26:38.963Z,97143.50
2018-05-09T08:29:06.549Z,97133.02
2018-05-09T08:31:34.139Z,97125.06
2018-05-09T08:34:01.780Z,97119.47
2018-05-09T08:36:29.375Z,97119.67
2018-05-09T08:38:57.086Z,97118.69
2018-05-09T08:41:25.125Z,97117.40
2018-05-09T08:43:52.725Z,97118.20
2018-05-09T08:46:20.320Z,97121.55
2018-05-09T08:48:48.177Z,97113.75
2018-05-09T08:51:15.776Z,97115.11
2018-05-09T08:53:43.376Z,97115.88
2018-05-09T08:56:10.991Z,97124.31
2018-05-09T08:58:38.590Z,97121.39
2018-05-09T09:01:06.175Z,97117.67
2018-05-09T09:03:33.829Z,97113.77
2018-05-09T09:06:01.416Z,97119.30
2018-05-09T09:08:29.025Z,97120.86
2018-05-09T09:10:56.735Z,97116.93
2018-05-09T09:13:24.294Z,97115.36
2018-05-09T09:15:51.883Z,97113.59
2018-05-09T09:18:19.516Z,97113.41
2018-05-09T09:20:47.126Z,97107.08
2018-05-09T09:23:14.724Z,97109.03
2018-05-09T09:25:42.368Z,97105.30
2018-05-09T09:28:09.952Z,97110.22
2018-05-09T09:30:37.548Z,97101.20
2018-05-09T09:33:05.300Z,97102.97
2018-05-09T09:35:32.884Z,97098.28
2018-05-09T09:38:00.479Z,97102.61
2018-05-09T09:40:28.095Z,97088.25
2018-05-09T09:42:57.198Z,97093.11
2018-05-09T09:45:24.786Z,97086.42
2018-05-09T09:47:52.414Z,97079.16
2018-05-09T09:50:20.010Z,97088.02
2018-05-09T09:52:47.592Z,97078.09
2018-05-09T09:55:15.597Z,97083.16
2018-05-09T09:57:43.181Z,97079.38
2018-05-09T10:00:10.781Z,97080.11
2018-05-09T10:02:38.446Z,97077.28
2018-05-09T10:05:06.050Z,97074.84
2018-05-09T10:07:33.639Z,97072.59
2018-05-09T10:10:01.295Z,97073.05
2018-05-09T10:12:28.899Z,97065.85
2018-05-09T10:14:56.491Z,97055.96
2018-05-09T10:17:24.291Z,97061.39
2018-05-09T10:19:51.931Z,97058.45
2018-05-09T10:22:19.529Z,97053.70
2018-05-09T10:24:47.142Z,97052.41
2018-05-09T10:27:14.726Z,97046.05
2018-05-09T10:29:42.322Z,97042.57
2018-05-09T10:32:09.939Z,97038.45
2018-05-09T10:34:37.533Z,97037.56
2018-05-09T10:37:05.123Z,97043.86
2018-05-09T10:39:32.748Z,97036.67
2018-05-09T10:42:00.346Z,97032.80
2018-05-09T10:44:27.925Z,97031.34
2018-05-09T10:46:55.560Z,97029.23
2018-05-09T10:49:23.150Z,97026.38
2018-05-09T10:51:50.733Z,97024.03
2018-05-09T10:54:18.350Z,97026.33
2018-05-09T10:56:45.972Z,97025.75
2018-05-09T10:59:14.483Z,97023.50
2018-05-09T11:01:42.133Z,97026.78
2018-05-09T11:04:09.729Z,97029.36
2018-05-09T11:06:37.325Z,97030.55
2018-05-09T11:09:05.707Z,97029.15
2018-05-09T11:11:33.287Z,97026.14
2018-05-09T11:14:00.941Z,97027.53
2018-05-09T11:16:28.565Z,97017.84
2018-05-09T11:18:56.153Z,97024.91
2018-05-09T11:21:23.739Z,97022.48
2018-05-09T11:23:51.355Z,97018.68
2018-05-09T11:26:18.945Z,97010.44
2018-05-09T11:28:46.535Z,97011.70
2018-05-09T11:31:14.161Z,97011.89
2018-05-09T11:33:41.760Z,97015.38
2018-05-09T11:36:09.346Z,97007.41
2018-05-09T11:38:36.962Z,97006.55
2018-05-09T11:41:04.604Z,97007.55
2018-05-09T11:43:32.174Z,97008.03
2018-05-09T11:45:59.802Z,97005.28
2018-05-09T11:48:27.394Z,97002.61
2018-05-09T11:50:54.983Z,96999.47
2018-05-09T11:53:22.599Z,97002.39
2018-05-09T11:55:50.183Z,96999.52
2018-05-09T11:58:17.778Z,96993.66
2018-05-09T12:00:45.394Z,96997.13
2018-05-09T12:03:13.203Z,96993.16
2018-05-09T12:05:40.782Z,96982.16
2018-05-09T12:08:08.405Z,96976.17
2018-05-09T12:10:36.214Z,96978.64
2018-05-09T12:13:04.009Z,96977.97
2018-05-09T12:15:31.633Z,96969.70
2018-05-09T12:17:59.363Z,96966.68
2018-05-09T12:20:26.946Z,96957.43
2018-05-09T12:22:54.639Z,96948.09
2018-05-09T12:25:22.242Z,96953.78
2018-05-09T12:27:49.826Z,96945.12
2018-05-09T12:30:17.463Z,96951.93
2018-05-09T12:32:45.205Z,96948.12
2018-05-09T12:35:13.008Z,96950.25
2018-05-09T12:37:40.639Z,96945.83
2018-05-09T12:40:08.227Z,96942.48
2018-05-09T12:42:35.821Z,96947.86
2018-05-09T12:45:03.445Z,96949.88
2018-05-09T12:47:31.022Z,96942.06
2018-05-09T12:49:58.608Z,96944.82
2018-05-09T12:52:26.239Z,96938.30
2018-05-09T12:54:53.822Z,96944.52
2018-05-09T12:57:21.430Z,96939.16
2018-05-09T12:59:49.042Z,96927.56
2018-05-09T13:02:16.630Z,96927.52
2018-05-09T13:04:44.215Z,96916.05
2018-05-09T13:07:11.911Z,96920.25
2018-05-09T13:09:39.463Z,96923.97
2018-05-09T13:12:07.105Z,96914.73
2018-05-09T13:14:35.286Z,96911.48
2018-05-09T13:17:02.876Z,96906.52
2018-05-09T13:19:30.461Z,96913.61
2018-05-09T13:21:58.074Z,96906.89
2018-05-09T13:24:26.854Z,96907.61
2018-05-09T13:26:54.444Z,96905.78
2018-05-09T13:29:22.063Z,96906.22
2018-05-09T13:31:49.669Z,96898.98
2018-05-09T13:34:17.259Z,96892.73
2018-05-09T13:36:44.881Z,96884.63
2018-05-09T13:39:12.478Z,96880.02
2018-05-09T13:41:40.066Z,96879.92
2018-05-09T13:44:07.714Z,96874.53
2018-05-09T13:46:35.484Z,96874.63
2018-05-09T13:49:03.481Z,96870.39
2018-05-09T13:51:31.099Z,96869.16
2018-05-09T13:53:58.773Z,96869.80
2018-05-09T13:56:26.299Z,96866.34
2018-05-09T13:58:53.930Z,96865.97
2018-05-09T14:01:24.143Z,96860.13
2018-05-09T14:03:51.753Z,96854.42
2018-05-09T14:06:19.538Z,96857.67
2018-05-09T14:08:47.151Z,96861.23
2018-05-09T14:11:14.750Z,96859.88
2018-05-09T14:13:42.414Z,96860.16
2018-05-09T14:16:10.019Z,96857.84
2018-05-09T14:18:37.612Z,96856.25
2018-05-09T14:21:05.246Z,96853.28
2018-05-09T14:23:32.838Z,96853.15
2018-05-09T14:26:00.431Z,96855.20
2018-05-09T14:28:28.066Z,96856.64
2018-05-09T14:30:55.663Z,96858.97
2018-05-09T14:33:23.301Z,96849.98
2018-05-09T14:35:50.929Z,96844.29
2018-05-09T14:38:18.524Z,96847.13
2018-05-09T14:40:46.302Z,96859.33
2018-05-09T14:43:13.874Z,96859.09
2018-05-09T14:45:41.491Z,96857.03
2018-05-09T14:48:09.092Z,96845.63
2018-05-09T14:50:36.795Z,96858.53
2018-05-09T14:53:04.391Z,96862.55
2018-05-09T14:55:32.068Z,96854.49
2018-05-09T14:58:00.180Z,96856.69
2018-05-09T15:00:27.783Z,96862.55
2018-05-09T15:02:55.378Z,96859.19
2018-05-09T15:05:22.999Z,96864.67
2018-05-09T15:07:50.657Z,96867.91
2018-05-09T15:10:18.249Z,96865.27
2018-05-09T15:12:45.878Z,96872.61
2018-05-09T15:15:13.471Z,96866.86
2018-05-09T15:17:41.349Z,96866.33
2018-05-09T15:20:09.385Z,96868.92
2018-05-09T15:22:36.973Z,96865.92
2018-05-09T15:25:04.566Z,96862.42
2018-05-09T15:27:32.224Z,96859.71
2018-05-09T15:29:59.831Z,96860.24
2018-05-09T15:32:27.423Z,96861.77
2018-05-09T15:34:55.042Z,96868.07
2018-05-09T15:37:22.648Z,96861.13
2018-05-09T15:39:50.237Z,96864.39
2018-05-09T15:42:17.864Z,96861.63
2018-05-09T15:44:45.518Z,96853.91
2018-05-09T15:47:13.207Z,96862.41
2018-05-09T15:49:40.840Z,96860.42
2018-05-09T15:52:08.446Z,96859.34
2018-05-09T15:54:36.041Z,96848.69
2018-05-09T15:57:03.677Z,96850.95
2018-05-09T15:59:31.275Z,96841.98
2018-05-09T16:01:58.869Z,96844.00
2018-05-09T16:04:26.502Z,96845.42
2018-05-09T16:06:54.093Z,96836.11
2018-05-09T16:09:21.685Z,96839.22
2018-05-09T16:11:49.522Z,96841.59
2018-05-09T16:14:17.115Z,96835.73
2018-05-09T16:16:44.734Z,96832.89
2018-05-09T16:19:12.513Z,96843.77
2018-05-09T16:21:40.104Z,96835.93
2018-05-09T16:24:07.699Z,96836.30
2018-05-09T16:26:35.326Z,96833.54
2018-05-09T16:29:02.934Z,96829.69
2018-05-09T16:31:30.535Z,96827.39
2018-05-09T16:33:58.185Z,96824.38
2018-05-09T16:36:25.772Z,96828.38
2018-05-09T16:38:53.364Z,96825.16
2018-05-09T16:41:21.006Z,96829.36
2018-05-09T16:43:48.592Z,96837.91
2018-05-09T16:46:16.823Z,96834.94
2018-05-09T16:48:44.491Z,96836.40
2018-05-09T16:51:12.102Z,96844.35
2018-05-09T16:53:39.692Z,96844.67
2018-05-09T16:56:07.514Z,96848.84
2018-05-09T16:58:35.104Z,96848.78
2018-05-09T17:01:02.707Z,96853.76
2018-05-09T17:03:30.340Z,96852.59
2018-05-09T17:05:57.927Z,96846.92
2018-05-09T17:08:25.550Z,96842.67
2018-05-09T17:10:53.166Z,96839.59
2018-05-09T17:13:20.750Z,96845.23
2018-05-09T17:15:48.346Z,96841.97
2018-05-09T17:18:15.986Z,96844.59
2018-05-09T17:20:43.581Z,96848.27
2018-05-09T17:23:11.173Z,96854.47
2018-05-09T17:25:38.971Z,96846.07
2018-05-09T17:28:06.567Z,96848.06
2018-05-09T17:30:34.251Z,96851.01
2018-05-09T17:33:01.811Z,96855.67
2018-05-09T17:35:29.402Z,96854.38
2018-05-09T17:37:57.018Z,96861.17
2018-05-09T17:40:24.669Z,96862.02
2018-05-09T17:42:52.254Z,96858.41
2018-05-09T17:45:19.850Z,96859.27
2018-05-09T17:47:47.476Z,96860.92
2018-05-09T17:50:15.074Z,96868.81
2018-05-09T17:52:42.665Z,96866.50
2018-05-09T17:55:10.302Z,96863.03
2018-05-09T17:57:37.912Z,96866.23
2018-05-09T18:00:05.518Z,96868.52
2018-05-09T18:02:33.148Z,96872.70
2018-05-09T18:05:00.739Z,96876.73
2018-05-09T18:07:28.333Z,96876.24
2018-05-09T18:09:55.955Z,96879.66
2018-05-09T18:12:23.552Z,96878.55
2018-05-09T18:14:51.172Z,96881.68
2018-05-09T18:17:18.798Z,96880.94
2018-05-09T18:19:46.394Z,96874.87
2018-05-09T18:22:13.983Z,96869.58
2018-05-09T18:24:41.668Z,96866.68
2018-05-09T18:27:09.250Z,96857.27
2018-05-09T18:29:36.843Z,96862.98
2018-05-09T18:32:04.473Z,96865.20
2018-05-09T18:34:32.069Z,96866.61
2018-05-09T18:36:59.664Z,96866.81
2018-05-09T18:39:27.282Z,96864.68
2018-05-09T18:41:54.884Z,96876.86
2018-05-09T18:44:22.475Z,96880.21
2018-05-09T18:46:50.119Z,96884.18
2018-05-09T18:49:17.726Z,96887.89
2018-05-09T18:51:45.329Z,96882.04
2018-05-09T18:54:13.156Z,96887.71
2018-05-09T18:56:40.775Z,96887.75
2018-05-09T18:59:08.398Z,96898.91
2018-05-09T19:01:36.055Z,96893.44
2018-05-09T19:04:03.651Z,96897.17
2018-05-09T19:06:32.224Z,96896.20
2018-05-09T19:08:59.823Z,96907.00
2018-05-09T19:11:27.408Z,96904.27
2018-05-09T19:13:54.992Z,96904.05
2018-05-09T19:16:22.639Z,96911.69
2018-05-09T19:18:50.287Z,96909.35
2018-05-09T19:21:17.962Z,96915.97
2018-05-09T19:23:45.585Z,96920.88
2018-05-09T19:26:13.179Z,96925.97
2018-05-09T19:28:40.827Z,96927.72
2018-05-09T19:31:08.435Z,96931.83
2018-05-09T19:33:36.026Z,96931.41
2018-05-09T19:36:03.621Z,96934.75
2018-05-09T19:38:31.250Z,96932.00
2018-05-09T19:40:58.863Z,96938.06
2018-05-09T19:43:26.462Z,96944.11
2018-05-09T19:45:54.103Z,96949.78
2018-05-09T19:48:21.692Z,96949.95
2018-05-09T19:50:49.282Z,96958.18
2018-05-09T19:53:16.930Z,96951.11
2018-05-09T19:55:44.514Z,96953.66
2018-05-09T19:58:12.104Z,96952.09
2018-05-09T20:00:39.736Z,96952.11
2018-05-09T20:03:07.329Z,96956.00
2018-05-09T20:05:34.919Z,96947.76
2018-05-09T20:08:02.545Z,96946.81
2018-05-09T20:10:30.168Z,96944.07
2018-05-09T20:12:57.758Z,96948.93
2018-05-09T20:15:25.395Z,96949.49
2018-05-09T20:17:52.985Z,96948.12
2018-05-09T20:20:20.566Z,96948.67
2018-05-09T20:22:48.255Z,96942.61
2018-05-09T20:25:15.865Z,96940.80
2018-05-09T20:27:43.592Z,96941.73
2018-05-09T20:30:16.992Z,96936.42
2018-05-09T20:32:44.591Z,96943.46
2018-05-09T20:35:12.190Z,96947.73
2018-05-09T20:37:40.053Z,96943.81
2018-05-09T20:40:07.650Z,96944.36
2018-05-09T20:42:35.251Z,96941.97
2018-05-09T20:45:03.051Z,96947.83
2018-05-09T20:47:30.639Z,96944.66
2018-05-09T20:49:58.228Z,96954.00
2018-05-09T20:52:25.863Z,96954.33
2018-05-09T20:54:53.456Z,96956.08
2018-05-09T20:57:21.055Z,96960.13
2018-05-09T20:59:48.697Z,96963.58
2018-05-09T21:02:16.294Z,96970.66
2018-05-09T21:04:43.889Z,96972.42
2018-05-09T21:07:11.512Z,96968.06
2018-05-09T21:09:39.109Z,96965.47
2018-05-09T21:12:09.581Z,96974.24
2018-05-09T21:14:37.302Z,96976.78
2018-05-09T21:17:04.853Z,96976.84
2018-05-09T21:19:32.474Z,96976.96
2018-05-09T21:22:00.128Z,96973.67
2018-05-09T21:24:27.724Z,96977.69
2018-05-09T21:26:55.330Z,96980.20
2018-05-09T21:29:22.946Z,96987.57
2018-05-09T21:31:50.545Z,96980.41
2018-05-09T21:34:18.139Z,96981.71
2018-05-09T21:36:45.759Z,96977.41
2018-05-09T21:39:13.353Z,96977.94
2018-05-09T21:41:40.962Z,96978.31
2018-05-09T21:44:09.543Z,96975.17
2018-05-09T21:46:37.189Z,96976.03
2018-05-09T21:49:04.787Z,96976.61
2018-05-09T21:51:32.406Z,96972.89
2018-05-09T21:54:00.005Z,96974.43
2018-05-09T21:56:27.802Z,96966.23
2018-05-09T21:58:55.431Z,96963.97
2018-05-09T22:01:23.019Z,96960.30
2018-05-09T22:03:50.607Z,96965.56
2018-05-09T22:06:18.245Z,96967.25
2018-05-09T22:08:45.838Z,96962.17
2018-05-09T22:11:13.435Z,96966.20
2018-05-09T22:13:41.061Z,96962.41
2018-05-09T22:16:08.653Z,96964.11
2018-05-09T22:18:36.299Z,96965.67
2018-05-09T22:21:03.922Z,96955.09
2018-05-09T22:23:31.582Z,96957.22
2018-05-09T22:25:59.158Z,96952.47
2018-05-09T22:28:26.792Z,96953.25
2018-05-09T22:30:54.374Z,96949.25
2018-05-09T22:33:21.971Z,96953.34
2018-05-09T22:38:39.774Z,96962.22
2018-05-09T22:41:07.383Z,96955.99
2018-05-09T22:43:34.984Z,96953.27
2018-05-09T22:46:03.189Z,96951.21
2018-05-09T22:48:30.864Z,96948.86
2018-05-09T22:50:58.581Z,96949.42
2018-05-09T22:53:26.214Z,96949.03
2018-05-09T22:55:53.816Z,96949.41
2018-05-09T22:58:21.533Z,96949.14
2018-05-09T23:00:49.131Z,96949.40
2018-05-09T23:03:16.818Z,96947.00
2018-05-09T23:05:44.403Z,96944.85
2018-05-09T23:08:12.022Z,96952.31
2018-05-09T23:10:39.615Z,96937.91
2018-05-09T23:13:07.415Z,96938.10
2018-05-09T23:15:35.021Z,96938.08
2018-05-09T23:18:02.639Z,96935.84
2018-05-09T23:20:30.234Z,96930.50
2018-05-09T23:22:57.850Z,96932.52
2018-05-09T23:25:25.439Z,96933.45
2018-05-09T23:27:53.051Z,96935.86
2018-05-09T23:30:20.638Z,96933.64
2018-05-09T23:32:48.258Z,96935.22
2018-05-09T23:35:15.859Z,96936.48
2018-05-09T23:37:43.464Z,96937.20
2018-05-09T23:40:11.174Z,96936.55
2018-05-09T23:42:41.382Z,96934.82
2018-05-09T23:45:09.002Z,96936.48
2018-05-09T23:47:36.736Z,96930.78
2018-05-09T23:50:04.351Z,96927.36
2018-05-09T23:52:31.955Z,96925.53
2018-05-09T23:54:59.595Z,96923.97
2018-05-09T23:57:27.218Z,96916.95
2018-05-09T23:59:54.819Z,96923.13
